Time;durP1;ratioP1;P1;durP2;ratioP2;P2;SDS_P1;SDS_P2;PMS_P1;PMS_P2;Temp;Humidity;BMP_temperature;BMP_pressure;BME280_temperature;BME280_humidity;BME280_pressure;Samples;Min_cycle;Max_cycle;Signal;HPM_P1;HPM_P2
2021/12/14 00:00:12;;;;;;;59.22;27.80;;;;;;;;;;4999625;28;20032;-72
2021/12/14 00:02:43;;;;;;;74.28;34.05;;;;;;;;;;4999701;28;20031;-71
2021/12/14 00:05:11;;;;;;;59.83;27.50;;;;;;;;;;4999581;28;20029;-71
2021/12/14 00:07:41;;;;;;;63.22;26.48;;;;;;;;;;4999982;28;20030;-71
2021/12/14 00:10:26;;;;;;;74.28;31.55;;;;;;;;;;4999710;28;20086;-71
2021/12/14 00:13:00;;;;;;;81.60;34.92;;;;;;;;;;4999602;28;20029;-71
2021/12/14 00:15:28;;;;;;;63.58;29.10;;;;;;;;;;4999621;28;20031;-71
2021/12/14 00:17:58;;;;;;;63.75;28.75;;;;;;;;;;4999313;28;20018;-72
2021/12/14 00:20:36;;;;;;;69.18;29.05;;;;;;;;;;4998809;28;20022;-71
2021/12/14 00:25:37;;;;;;;60.05;24.30;;;;;;;;;;5000855;28;20081;-71
2021/12/14 00:28:09;;;;;;;60.28;24.75;;;;;;;;;;5001124;28;20030;-71
2021/12/14 00:30:37;;;;;;;65.40;27.95;;;;;;;;;;5000906;28;20033;-71
2021/12/14 00:33:12;;;;;;;71.32;31.10;;;;;;;;;;5000854;28;20029;-71
2021/12/14 00:35:40;;;;;;;62.33;31.42;;;;;;;;;;5001086;28;20046;-71
2021/12/14 00:38:08;;;;;;;71.05;31.50;;;;;;;;;;5000212;28;20438;-72
2021/12/14 00:40:47;;;;;;;81.07;34.47;;;;;;;;;;5000690;28;20455;-71
2021/12/14 00:43:14;;;;;;;81.82;35.42;;;;;;;;;;5000746;28;20473;-71
2021/12/14 00:45:43;;;;;;;83.75;37.47;;;;;;;;;;5000951;28;20033;-71
2021/12/14 00:48:12;;;;;;;90.97;39.47;;;;;;;;;;5015976;28;20119;-72
2021/12/14 00:50:45;;;;;;;115.55;56.10;;;;;;;;;;5000612;28;20319;-71
2021/12/14 00:53:14;;;;;;;99.93;49.22;;;;;;;;;;5001073;28;20022;-72
2021/12/14 00:55:44;;;;;;;82.53;39.97;;;;;;;;;;5000336;28;20038;-71
2021/12/14 00:58:12;;;;;;;91.95;42.08;;;;;;;;;;5015684;28;20045;-71
2021/12/14 01:00:43;;;;;;;77.25;35.72;;;;;;;;;;5000376;28;20112;-71
2021/12/14 01:03:11;;;;;;;68.53;29.80;;;;;;;;;;5015345;28;20085;-71
2021/12/14 01:05:41;;;;;;;70.65;29.48;;;;;;;;;;5015592;28;20331;-70
2021/12/14 01:08:12;;;;;;;60.97;28.13;;;;;;;;;;5000191;28;20420;-70
2021/12/14 01:10:42;;;;;;;61.42;26.38;;;;;;;;;;5015058;28;20030;-70
2021/12/14 01:13:10;;;;;;;94.63;44.25;;;;;;;;;;5015693;28;20324;-70
2021/12/14 01:18:32;;;;;;;105.50;43.20;;;;;;;;;;5000010;28;20023;-70
2021/12/14 01:21:10;;;;;;;85.95;36.25;;;;;;;;;;5000049;28;20315;-71
2021/12/14 01:23:38;;;;;;;79.15;30.92;;;;;;;;;;5001946;28;20037;-71
2021/12/14 01:26:10;;;;;;;70.10;29.52;;;;;;;;;;5005505;28;20048;-71
2021/12/14 01:28:38;;;;;;;66.05;25.38;;;;;;;;;;5020949;28;20026;-71
2021/12/14 01:31:28;;;;;;;63.45;26.02;;;;;;;;;;5021161;28;20022;-71
2021/12/14 01:33:57;;;;;;;64.05;27.73;;;;;;;;;;5004827;28;20018;-71
2021/12/14 01:36:30;;;;;;;53.55;23.80;;;;;;;;;;5000823;28;20029;-71
2021/12/14 01:41:47;;;;;;;71.30;24.70;;;;;;;;;;5000425;28;20042;-69
2021/12/14 01:44:14;;;;;;;63.00;26.02;;;;;;;;;;5015981;28;20029;-72
2021/12/14 01:46:53;;;;;;;66.32;24.85;;;;;;;;;;5001360;28;20153;-74
2021/12/14 01:49:20;;;;;;;515.75;232.30;;;;;;;;;;4999848;28;20026;-72
2021/12/14 01:51:50;;;;;;;844.97;368.13;;;;;;;;;;4998220;28;20110;-73
2021/12/14 01:54:18;;;;;;;457.23;188.18;;;;;;;;;;5013044;28;20051;-72
2021/12/14 01:56:45;;;;;;;414.77;192.85;;;;;;;;;;5014439;28;20050;-74
2021/12/14 01:59:23;;;;;;;260.55;122.32;;;;;;;;;;5001230;28;20023;-73
2021/12/14 02:02:07;;;;;;;160.43;73.75;;;;;;;;;;5012587;28;20030;-73
2021/12/14 02:04:39;;;;;;;138.18;55.63;;;;;;;;;;4997005;28;20019;-71
2021/12/14 02:07:07;;;;;;;126.72;53.47;;;;;;;;;;4997842;28;20035;-70
2021/12/14 02:09:35;;;;;;;131.52;53.20;;;;;;;;;;4996902;28;20111;-71
2021/12/14 02:12:09;;;;;;;134.73;56.90;;;;;;;;;;4996933;28;20026;-72
2021/12/14 02:14:37;;;;;;;241.40;103.38;;;;;;;;;;4997113;28;20019;-72
2021/12/14 02:17:07;;;;;;;195.18;82.82;;;;;;;;;;4996887;28;20030;-74
2021/12/14 02:19:36;;;;;;;158.07;62.67;;;;;;;;;;4995950;28;20019;-73
2021/12/14 02:22:06;;;;;;;148.20;58.75;;;;;;;;;;4995695;28;20030;-74
2021/12/14 02:24:34;;;;;;;118.85;50.58;;;;;;;;;;4996522;28;20030;-75
2021/12/14 02:27:01;;;;;;;117.80;51.08;;;;;;;;;;4997054;28;20030;-75
2021/12/14 02:29:34;;;;;;;111.55;48.47;;;;;;;;;;4997015;28;20121;-75
2021/12/14 02:32:03;;;;;;;115.43;51.50;;;;;;;;;;4996688;28;20040;-72
2021/12/14 02:34:37;;;;;;;106.35;49.13;;;;;;;;;;4996125;28;20030;-71
2021/12/14 02:37:04;;;;;;;106.90;47.20;;;;;;;;;;4995133;28;20101;-73
2021/12/14 02:42:11;;;;;;;121.55;50.88;;;;;;;;;;4996762;28;20030;-73
2021/12/14 02:44:38;;;;;;;125.55;53.60;;;;;;;;;;4995433;28;20438;-73
2021/12/14 02:47:12;;;;;;;116.25;50.88;;;;;;;;;;4996914;28;20336;-73
2021/12/14 02:49:41;;;;;;;114.70;51.03;;;;;;;;;;4996537;28;20474;-73
2021/12/14 02:52:25;;;;;;;137.73;53.60;;;;;;;;;;4996453;28;20026;-73
2021/12/14 02:54:53;;;;;;;114.18;46.97;;;;;;;;;;4996103;28;20078;-73
2021/12/14 02:57:23;;;;;;;112.05;45.95;;;;;;;;;;4995377;28;20022;-73
2021/12/14 02:59:53;;;;;;;116.10;47.45;;;;;;;;;;4996034;28;20026;-71
2021/12/14 03:02:33;;;;;;;121.90;46.72;;;;;;;;;;4995734;28;20033;-71
2021/12/14 03:05:12;;;;;;;110.47;45.33;;;;;;;;;;4995772;28;20080;-70
2021/12/14 03:07:43;;;;;;;123.25;49.47;;;;;;;;;;4996155;28;20443;-72
2021/12/14 03:10:35;;;;;;;115.45;47.92;;;;;;;;;;4996246;28;20053;-73
2021/12/14 03:13:08;;;;;;;118.63;48.58;;;;;;;;;;4995833;28;20387;-73
2021/12/14 03:15:51;;;;;;;121.90;49.28;;;;;;;;;;4994991;28;20068;-74
2021/12/14 03:18:22;;;;;;;131.35;52.83;;;;;;;;;;4996557;28;20026;-71
2021/12/14 03:20:55;;;;;;;125.22;53.92;;;;;;;;;;4995495;28;20034;-72
2021/12/14 03:23:29;;;;;;;128.50;53.33;;;;;;;;;;4995866;28;20470;-74
2021/12/14 03:25:58;;;;;;;130.82;54.60;;;;;;;;;;4995069;28;20416;-73
2021/12/14 03:28:28;;;;;;;133.07;54.03;;;;;;;;;;4995250;28;20050;-71
2021/12/14 03:31:19;;;;;;;139.90;57.85;;;;;;;;;;4994706;28;20113;-74
2021/12/14 03:33:49;;;;;;;136.10;57.78;;;;;;;;;;4995862;28;20026;-74
2021/12/14 03:36:20;;;;;;;127.28;52.75;;;;;;;;;;4995866;28;20041;-72
2021/12/14 03:38:52;;;;;;;133.07;56.22;;;;;;;;;;4994720;28;20499;-74
2021/12/14 03:41:23;;;;;;;153.88;53.55;;;;;;;;;;4994078;28;20304;-74
2021/12/14 03:44:00;;;;;;;117.22;52.83;;;;;;;;;;4994265;28;20088;-74
2021/12/14 03:46:29;;;;;;;147.88;58.65;;;;;;;;;;4994348;28;20022;-73
2021/12/14 03:48:58;;;;;;;121.35;52.58;;;;;;;;;;4995903;28;20037;-73
2021/12/14 03:51:26;;;;;;;117.40;48.47;;;;;;;;;;4995735;28;20022;-73
2021/12/14 03:53:53;;;;;;;114.07;47.53;;;;;;;;;;4995650;28;20050;-73
2021/12/14 03:56:20;;;;;;;112.13;48.65;;;;;;;;;;4995442;28;20034;-75
2021/12/14 03:58:48;;;;;;;121.65;50.22;;;;;;;;;;4995780;28;20105;-74
2021/12/14 04:01:18;;;;;;;119.43;53.78;;;;;;;;;;4995826;28;20038;-74
2021/12/14 04:03:47;;;;;;;105.65;46.33;;;;;;;;;;4994448;28;20030;-72
2021/12/14 04:06:15;;;;;;;101.35;44.85;;;;;;;;;;4994165;28;20050;-72
2021/12/14 04:08:43;;;;;;;88.68;39.67;;;;;;;;;;4993548;28;20034;-71
2021/12/14 04:11:12;;;;;;;75.97;33.88;;;;;;;;;;4973922;28;20049;-74
2021/12/14 04:13:42;;;;;;;68.82;30.38;;;;;;;;;;4991050;28;20393;-74
2021/12/14 04:16:11;;;;;;;74.60;30.90;;;;;;;;;;4997556;28;20022;-72
2021/12/14 04:18:38;;;;;;;69.75;30.25;;;;;;;;;;4997909;28;20034;-72
2021/12/14 04:21:06;;;;;;;67.53;27.58;;;;;;;;;;4997714;28;20432;-73
2021/12/14 04:23:36;;;;;;;68.43;30.52;;;;;;;;;;4993717;28;20031;-71
2021/12/14 04:26:05;;;;;;;73.70;28.95;;;;;;;;;;4993743;28;20027;-72
2021/12/14 04:28:38;;;;;;;72.35;32.33;;;;;;;;;;4993396;28;20041;-72
2021/12/14 04:31:06;;;;;;;59.60;29.83;;;;;;;;;;4996206;28;20030;-72
2021/12/14 04:33:35;;;;;;;91.15;44.90;;;;;;;;;;4998194;28;20029;-72
2021/12/14 04:36:07;;;;;;;75.03;39.67;;;;;;;;;;4998332;28;20022;-71
2021/12/14 04:38:44;;;;;;;73.05;31.50;;;;;;;;;;4996728;28;20018;-70
2021/12/14 04:52:16;;;;;;;61.72;23.48;;;;;;;;;;4988575;28;20045;-69
2021/12/14 04:54:43;;;;;;;59.92;23.67;;;;;;;;;;4997919;28;20054;-69
2021/12/14 04:57:27;;;;;;;73.18;25.40;;;;;;;;;;4996670;28;20058;-71
2021/12/14 04:59:56;;;;;;;67.85;25.50;;;;;;;;;;4990764;28;20049;-68
2021/12/14 05:02:29;;;;;;;58.58;25.90;;;;;;;;;;4996046;28;20026;-69
2021/12/14 05:04:58;;;;;;;69.90;29.17;;;;;;;;;;4994450;28;20018;-68
2021/12/14 05:10:02;;;;;;;102.35;37.65;;;;;;;;;;4997180;28;20490;-72
2021/12/14 05:12:31;;;;;;;94.03;34.85;;;;;;;;;;4997945;28;20094;-74
2021/12/14 05:14:59;;;;;;;115.72;36.13;;;;;;;;;;4997318;28;20022;-73
2021/12/14 05:17:31;;;;;;;116.35;35.85;;;;;;;;;;4997433;28;20022;-73
2021/12/14 05:19:59;;;;;;;105.13;33.35;;;;;;;;;;4996248;28;20101;-72
2021/12/14 05:22:31;;;;;;;134.75;33.03;;;;;;;;;;4996666;28;20032;-73
2021/12/14 05:25:03;;;;;;;88.45;28.95;;;;;;;;;;4995539;28;20026;-73
2021/12/14 05:27:39;;;;;;;120.47;41.25;;;;;;;;;;4997184;28;20056;-73
2021/12/14 05:30:12;;;;;;;85.72;30.40;;;;;;;;;;4994086;28;20026;-73
2021/12/14 05:32:39;;;;;;;82.20;28.52;;;;;;;;;;4995983;28;20096;-72
2021/12/14 05:35:08;;;;;;;75.97;27.38;;;;;;;;;;4997090;28;20045;-72
2021/12/14 05:37:45;;;;;;;62.53;26.70;;;;;;;;;;4997191;28;20026;-72
2021/12/14 05:40:23;;;;;;;68.95;30.55;;;;;;;;;;4995984;28;20081;-73
2021/12/14 05:43:07;;;;;;;76.00;30.98;;;;;;;;;;4997197;28;20038;-73
2021/12/14 05:45:37;;;;;;;80.28;32.28;;;;;;;;;;4995792;28;20105;-73
2021/12/14 05:48:05;;;;;;;87.38;30.77;;;;;;;;;;4995745;28;20025;-73
2021/12/14 05:50:40;;;;;;;82.25;32.60;;;;;;;;;;4997882;28;20190;-73
2021/12/14 05:53:08;;;;;;;80.28;32.13;;;;;;;;;;4994865;28;20088;-75
2021/12/14 05:55:39;;;;;;;91.07;33.58;;;;;;;;;;4994500;28;20581;-74
2021/12/14 05:58:11;;;;;;;91.18;36.00;;;;;;;;;;4978386;28;20141;-74
2021/12/14 06:00:43;;;;;;;82.85;34.38;;;;;;;;;;4978594;28;20022;-73
2021/12/14 06:03:15;;;;;;;82.45;35.13;;;;;;;;;;4994754;28;20034;-73
2021/12/14 06:05:43;;;;;;;79.32;32.97;;;;;;;;;;4978751;28;20110;-73
2021/12/14 06:08:17;;;;;;;91.05;33.47;;;;;;;;;;4994756;28;20034;-73
2021/12/14 06:10:45;;;;;;;73.90;29.80;;;;;;;;;;4977947;28;20030;-74
2021/12/14 06:13:16;;;;;;;82.78;32.50;;;;;;;;;;4978542;28;20026;-73
2021/12/14 06:15:44;;;;;;;130.25;48.22;;;;;;;;;;4994903;28;20121;-73
2021/12/14 06:18:12;;;;;;;100.38;34.38;;;;;;;;;;4994499;28;20030;-73
2021/12/14 06:20:43;;;;;;;94.47;33.03;;;;;;;;;;5003389;28;20033;-73
2021/12/14 06:23:12;;;;;;;81.55;30.73;;;;;;;;;;5014022;28;20026;-72
2021/12/14 06:25:40;;;;;;;73.75;26.52;;;;;;;;;;4997314;28;20032;-72
2021/12/14 06:28:08;;;;;;;69.15;25.88;;;;;;;;;;4997490;28;20077;-73
2021/12/14 06:30:41;;;;;;;78.30;31.10;;;;;;;;;;4997127;28;20124;-73
2021/12/14 06:33:09;;;;;;;92.68;35.65;;;;;;;;;;5013538;28;20320;-74
2021/12/14 06:35:47;;;;;;;88.72;34.92;;;;;;;;;;4995082;28;20023;-73
2021/12/14 06:38:30;;;;;;;94.13;34.45;;;;;;;;;;4995426;28;20042;-73
2021/12/14 06:41:13;;;;;;;79.30;33.15;;;;;;;;;;4994583;28;20101;-74
2021/12/14 06:43:42;;;;;;;89.43;34.47;;;;;;;;;;4994236;28;20359;-74
2021/12/14 06:46:13;;;;;;;93.68;37.17;;;;;;;;;;4992174;28;20026;-75
2021/12/14 06:48:49;;;;;;;89.50;32.83;;;;;;;;;;4994639;28;20035;-73
2021/12/14 06:51:21;;;;;;;83.75;33.65;;;;;;;;;;4992998;28;20073;-74
2021/12/14 06:53:49;;;;;;;64.38;29.70;;;;;;;;;;4991956;28;20053;-74
2021/12/14 06:56:18;;;;;;;66.72;29.42;;;;;;;;;;4995184;28;20022;-73
2021/12/14 06:59:00;;;;;;;82.45;28.60;;;;;;;;;;4992939;28;20024;-73
2021/12/14 07:01:30;;;;;;;72.57;27.35;;;;;;;;;;4989075;28;20022;-73
2021/12/14 07:04:09;;;;;;;78.70;30.48;;;;;;;;;;4995391;28;20014;-72
2021/12/14 07:06:41;;;;;;;81.15;30.58;;;;;;;;;;4994021;28;20058;-73
2021/12/14 07:09:16;;;;;;;79.68;31.23;;;;;;;;;;4992879;28;20077;-72
2021/12/14 07:12:13;;;;;;;197.82;94.68;;;;;;;;;;4994452;28;20179;-73
2021/12/14 07:14:53;;;;;;;196.57;88.47;;;;;;;;;;4957950;28;20037;-74
2021/12/14 07:17:28;;;;;;;191.23;74.43;;;;;;;;;;4958065;28;20031;-75
2021/12/14 07:20:06;;;;;;;165.90;72.50;;;;;;;;;;4957275;28;20051;-70
2021/12/14 07:22:43;;;;;;;144.80;63.33;;;;;;;;;;4973322;28;20038;-74
2021/12/14 07:25:20;;;;;;;130.52;50.00;;;;;;;;;;4974108;28;20114;-74
2021/12/14 07:27:59;;;;;;;126.03;49.80;;;;;;;;;;4974280;28;20034;-74
2021/12/14 07:30:31;;;;;;;82.35;34.03;;;;;;;;;;4973868;28;20026;-72
2021/12/14 07:33:03;;;;;;;74.05;31.17;;;;;;;;;;4957402;28;20108;-73
2021/12/14 07:35:38;;;;;;;91.40;35.38;;;;;;;;;;4957390;28;20708;-75
2021/12/14 07:38:18;;;;;;;88.13;34.80;;;;;;;;;;4971823;28;20030;-74
2021/12/14 07:40:48;;;;;;;83.80;36.22;;;;;;;;;;4972081;28;20385;-75
2021/12/14 07:43:26;;;;;;;107.47;42.10;;;;;;;;;;4957446;28;20023;-74
2021/12/14 07:45:56;;;;;;;84.57;33.70;;;;;;;;;;4973234;28;20069;-74
2021/12/14 07:48:38;;;;;;;88.47;35.42;;;;;;;;;;4938656;28;20031;-76
2021/12/14 07:51:06;;;;;;;94.50;41.33;;;;;;;;;;4984493;28;20041;-75
2021/12/14 07:53:55;;;;;;;92.82;43.50;;;;;;;;;;4995251;28;20027;-77
2021/12/14 07:56:31;;;;;;;100.32;43.42;;;;;;;;;;4997750;28;20026;-74
2021/12/14 07:58:59;;;;;;;102.55;43.20;;;;;;;;;;4997294;28;20373;-72
2021/12/14 08:01:27;;;;;;;99.28;43.92;;;;;;;;;;4998778;28;20026;-72
2021/12/14 08:04:41;;;;;;;;;;;;;;;;;;;;;
2021/12/14 08:06:58;;;;;;;92.10;38.35;;;;;;;;;;4974011;28;20019;-72
2021/12/14 08:09:52;;;;;;;124.32;50.03;;;;;;;;;;4976706;28;20035;-74
2021/12/14 08:12:34;;;;;;;92.00;40.63;;;;;;;;;;4976479;28;20122;-74
2021/12/14 08:15:22;;;;;;;109.20;47.63;;;;;;;;;;4977036;28;20503;-75
2021/12/14 08:17:58;;;;;;;109.15;45.17;;;;;;;;;;4977324;28;20329;-73
2021/12/14 08:20:26;;;;;;;86.60;38.20;;;;;;;;;;4977518;28;20042;-77
2021/12/14 08:22:57;;;;;;;106.20;42.47;;;;;;;;;;4979764;28;20034;-76
2021/12/14 08:25:26;;;;;;;120.30;46.90;;;;;;;;;;4978540;28;20027;-77
2021/12/14 08:28:01;;;;;;;70.97;32.45;;;;;;;;;;4977886;28;20035;-74
2021/12/14 08:30:30;;;;;;;65.10;25.55;;;;;;;;;;4977774;28;20034;-74
2021/12/14 08:32:58;;;;;;;66.93;28.60;;;;;;;;;;4977413;28;20455;-74
2021/12/14 08:35:29;;;;;;;87.53;28.23;;;;;;;;;;4977929;28;20058;-77
2021/12/14 08:38:03;;;;;;;66.68;27.95;;;;;;;;;;4987494;28;20026;-77
2021/12/14 08:40:37;;;;;;;55.47;19.45;;;;;;;;;;4987816;28;20030;-77
2021/12/14 08:43:21;;;;;;;79.60;36.58;;;;;;;;;;4962362;28;20032;-72
2021/12/14 08:46:02;;;;;;;61.25;23.88;;;;;;;;;;4976126;28;20039;-73
2021/12/14 08:48:36;;;;;;;73.45;30.65;;;;;;;;;;4977371;28;20442;-74
2021/12/14 08:51:16;;;;;;;73.53;29.33;;;;;;;;;;4977570;28;20163;-76
2021/12/14 08:53:48;;;;;;;92.25;31.75;;;;;;;;;;4979935;28;20049;-74
2021/12/14 08:56:17;;;;;;;100.63;33.78;;;;;;;;;;4996591;28;20038;-73
2021/12/14 08:58:45;;;;;;;75.35;31.08;;;;;;;;;;4997053;28;20026;-73
2021/12/14 09:01:15;;;;;;;83.15;32.25;;;;;;;;;;4996411;28;20339;-75
2021/12/14 09:03:46;;;;;;;85.28;31.45;;;;;;;;;;4980436;28;20044;-73
2021/12/14 09:06:16;;;;;;;87.40;37.95;;;;;;;;;;4996932;28;20761;-71
2021/12/14 09:08:45;;;;;;;136.15;66.70;;;;;;;;;;4996209;28;20065;-69
2021/12/14 09:11:16;;;;;;;169.00;74.25;;;;;;;;;;4996711;28;20065;-74
2021/12/14 09:13:44;;;;;;;193.38;78.05;;;;;;;;;;5003350;28;20030;-76
2021/12/14 09:16:13;;;;;;;169.40;74.70;;;;;;;;;;5015616;28;20457;-70
2021/12/14 09:18:43;;;;;;;168.40;73.38;;;;;;;;;;5015557;28;20034;-68
2021/12/14 09:21:16;;;;;;;178.18;78.72;;;;;;;;;;5015457;28;20042;-72
2021/12/14 09:23:46;;;;;;;190.27;86.53;;;;;;;;;;5014809;28;20398;-72
2021/12/14 09:26:17;;;;;;;197.68;84.63;;;;;;;;;;5015375;28;20057;-73
2021/12/14 09:28:45;;;;;;;181.80;78.70;;;;;;;;;;5019411;28;20033;-76
2021/12/14 09:33:48;;;;;;;195.90;78.25;;;;;;;;;;5188367;23;20050;-74
2021/12/14 09:36:16;;;;;;;165.40;74.60;;;;;;;;;;5015441;28;20026;-70
2021/12/14 09:38:47;;;;;;;210.02;85.07;;;;;;;;;;5016834;28;20026;-80
2021/12/14 09:41:17;;;;;;;165.77;75.75;;;;;;;;;;5016947;28;20029;-77
2021/12/14 09:43:47;;;;;;;191.35;83.95;;;;;;;;;;5016669;28;20033;-75
2021/12/14 09:46:15;;;;;;;166.20;69.07;;;;;;;;;;5015542;28;20038;-77
2021/12/14 09:48:46;;;;;;;148.38;62.65;;;;;;;;;;4997586;28;20038;-78
2021/12/14 09:51:15;;;;;;;136.40;63.22;;;;;;;;;;4996546;28;20081;-79
2021/12/14 09:53:44;;;;;;;130.90;59.83;;;;;;;;;;5001480;28;20032;-73
2021/12/14 09:56:12;;;;;;;155.80;63.67;;;;;;;;;;4994207;28;20053;-73
2021/12/14 09:58:43;;;;;;;139.55;63.10;;;;;;;;;;5009885;28;20057;-72
2021/12/14 10:01:24;;;;;;;154.23;66.72;;;;;;;;;;5012207;28;20105;-77
2021/12/14 10:03:52;;;;;;;141.52;64.53;;;;;;;;;;5012064;28;20030;-76
2021/12/14 10:06:24;;;;;;;136.25;63.22;;;;;;;;;;5006888;28;20423;-77
2021/12/14 10:08:59;;;;;;;141.00;61.10;;;;;;;;;;5010550;28;20044;-76
2021/12/14 10:11:46;;;;;;;141.93;62.88;;;;;;;;;;5030165;28;20042;-75
2021/12/14 10:14:15;;;;;;;145.40;65.85;;;;;;;;;;5014271;28;20040;-74
2021/12/14 10:16:46;;;;;;;147.75;67.60;;;;;;;;;;4997099;28;20034;-76
2021/12/14 10:19:16;;;;;;;180.57;76.70;;;;;;;;;;4986057;28;20030;-76
2021/12/14 10:21:47;;;;;;;155.52;70.70;;;;;;;;;;4993105;28;20038;-72
2021/12/14 10:24:15;;;;;;;153.48;63.10;;;;;;;;;;4975070;28;20118;-75
2021/12/14 10:26:47;;;;;;;120.50;55.35;;;;;;;;;;4993927;28;20109;-74
2021/12/14 10:29:15;;;;;;;128.65;57.03;;;;;;;;;;4990152;28;20061;-73
2021/12/14 10:31:48;;;;;;;151.82;58.13;;;;;;;;;;4983226;28;20411;-69
2021/12/14 10:34:21;;;;;;;142.82;59.20;;;;;;;;;;4993936;28;20052;-74
2021/12/14 10:36:53;;;;;;;166.82;70.47;;;;;;;;;;4994275;28;20041;-72
2021/12/14 10:44:48;;;;;;;166.45;69.00;;;;;;;;;;4995083;28;20129;-71
2021/12/14 10:47:16;;;;;;;200.88;90.30;;;;;;;;;;4994989;28;20038;-74
2021/12/14 10:49:45;;;;;;;209.38;91.07;;;;;;;;;;4995078;28;20022;-72
2021/12/14 10:52:15;;;;;;;169.90;73.28;;;;;;;;;;4995632;28;20027;-72
2021/12/14 10:54:44;;;;;;;150.30;64.05;;;;;;;;;;5011268;28;20438;-72
2021/12/14 10:57:13;;;;;;;153.48;66.85;;;;;;;;;;5011349;28;20026;-72
2021/12/14 10:59:43;;;;;;;159.80;70.40;;;;;;;;;;4994761;28;20115;-70
2021/12/14 11:02:10;;;;;;;172.68;76.20;;;;;;;;;;4997542;28;20089;-71
2021/12/14 11:04:53;;;;;;;172.35;75.70;;;;;;;;;;5017620;28;20053;-71
2021/12/14 11:07:25;;;;;;;183.65;77.10;;;;;;;;;;5034060;28;20403;-71
2021/12/14 11:09:55;;;;;;;176.55;79.68;;;;;;;;;;5037813;28;20025;-71
2021/12/14 11:12:33;;;;;;;191.57;90.32;;;;;;;;;;5042407;28;20034;-72
2021/12/14 11:15:21;;;;;;;213.18;91.72;;;;;;;;;;5009321;28;20104;-71
2021/12/14 11:18:10;;;;;;;198.18;86.68;;;;;;;;;;4996429;28;20474;-71
2021/12/14 11:20:51;;;;;;;234.25;98.63;;;;;;;;;;4997910;28;20439;-71
2021/12/14 11:23:26;;;;;;;423.75;176.63;;;;;;;;;;4997973;28;20107;-71
2021/12/14 11:26:16;;;;;;;351.33;136.95;;;;;;;;;;5006303;28;20028;-75
2021/12/14 11:28:58;;;;;;;297.20;132.63;;;;;;;;;;4997474;28;20023;-72
2021/12/14 11:31:42;;;;;;;353.98;158.80;;;;;;;;;;4999040;28;20056;-72
2021/12/14 11:34:17;;;;;;;359.58;162.88;;;;;;;;;;4999160;28;20057;-73
2021/12/14 11:37:08;;;;;;;317.13;146.23;;;;;;;;;;5000577;28;20105;-71
2021/12/14 11:39:47;;;;;;;327.30;155.25;;;;;;;;;;4997122;28;20033;-70
2021/12/14 11:42:20;;;;;;;294.35;132.55;;;;;;;;;;4997070;28;20030;-71
2021/12/14 11:44:52;;;;;;;335.58;146.57;;;;;;;;;;5000361;28;20109;-71
2021/12/14 11:50:18;;;;;;;288.42;130.90;;;;;;;;;;4999576;28;20030;-70
2021/12/14 11:53:00;;;;;;;252.38;117.63;;;;;;;;;;4996128;28;20056;-69
2021/12/14 11:55:45;;;;;;;260.65;112.32;;;;;;;;;;4997368;28;20319;-70
2021/12/14 11:58:17;;;;;;;241.52;114.95;;;;;;;;;;4997544;28;20454;-70
2021/12/14 12:01:02;;;;;;;232.93;111.72;;;;;;;;;;4996053;28;20045;-70
2021/12/14 12:03:48;;;;;;;222.27;107.50;;;;;;;;;;4996846;28;20061;-71
2021/12/14 12:09:29;;;;;;;221.85;104.88;;;;;;;;;;4997439;28;20026;-71
2021/12/14 12:11:59;;;;;;;249.90;110.95;;;;;;;;;;4997954;28;20069;-71
2021/12/14 12:14:32;;;;;;;263.60;117.28;;;;;;;;;;4997113;28;20026;-71
2021/12/14 12:17:10;;;;;;;277.38;125.68;;;;;;;;;;4995968;28;20069;-72
2021/12/14 12:19:38;;;;;;;266.00;120.97;;;;;;;;;;4995035;28;20030;-70
2021/12/14 12:22:10;;;;;;;266.90;121.32;;;;;;;;;;4996429;28;20026;-71
2021/12/14 12:24:46;;;;;;;254.43;118.88;;;;;;;;;;4996243;28;20026;-71
2021/12/14 12:27:31;;;;;;;273.15;115.35;;;;;;;;;;4995811;28;20026;-72
2021/12/14 12:30:22;;;;;;;255.98;115.80;;;;;;;;;;5001774;28;20026;-71
2021/12/14 12:32:49;;;;;;;245.77;113.65;;;;;;;;;;4994750;28;20046;-71
2021/12/14 12:35:23;;;;;;;232.70;111.45;;;;;;;;;;4997815;28;20023;-71
2021/12/14 12:37:51;;;;;;;230.55;107.00;;;;;;;;;;4999776;28;20371;-72
2021/12/14 12:40:31;;;;;;;219.63;103.75;;;;;;;;;;4999479;28;20026;-70
2021/12/14 12:43:18;;;;;;;207.38;98.05;;;;;;;;;;4998939;28;20054;-70
2021/12/14 12:46:06;;;;;;;214.93;101.68;;;;;;;;;;5018942;28;20073;-71
2021/12/14 12:48:50;;;;;;;220.73;100.45;;;;;;;;;;4943203;29;20039;-72
2021/12/14 12:51:34;;;;;;;220.52;98.13;;;;;;;;;;4940220;29;20059;-71
2021/12/14 12:54:16;;;;;;;224.43;102.13;;;;;;;;;;4939800;29;20075;-71
2021/12/14 12:56:44;;;;;;;212.70;102.18;;;;;;;;;;4939736;29;20039;-71
2021/12/14 12:59:12;;;;;;;223.15;103.70;;;;;;;;;;4939338;29;20141;-71
2021/12/14 13:01:40;;;;;;;236.60;104.93;;;;;;;;;;4939981;29;20055;-71
2021/12/14 13:04:08;;;;;;;229.82;108.97;;;;;;;;;;4939864;29;20075;-71
2021/12/14 13:06:35;;;;;;;241.27;112.63;;;;;;;;;;4939768;29;20071;-71
2021/12/14 13:09:03;;;;;;;238.00;116.57;;;;;;;;;;4939271;29;20050;-71
2021/12/14 13:11:35;;;;;;;241.45;111.45;;;;;;;;;;4940892;29;20062;-71
2021/12/14 13:14:10;;;;;;;228.50;107.80;;;;;;;;;;4940316;29;20028;-70
2021/12/14 13:16:41;;;;;;;257.05;116.78;;;;;;;;;;4939498;29;20512;-71
2021/12/14 13:19:13;;;;;;;242.93;114.00;;;;;;;;;;4938960;29;20150;-71
2021/12/14 13:21:48;;;;;;;249.45;120.53;;;;;;;;;;4939072;29;20090;-71
2021/12/14 13:24:17;;;;;;;265.38;124.13;;;;;;;;;;4924029;29;20467;-72
2021/12/14 13:27:10;;;;;;;256.15;119.88;;;;;;;;;;4995269;28;20042;-71
2021/12/14 13:29:39;;;;;;;279.35;131.90;;;;;;;;;;5016002;28;20038;-72
2021/12/14 13:32:14;;;;;;;268.65;125.32;;;;;;;;;;5027892;28;20069;-75
2021/12/14 13:34:48;;;;;;;284.05;133.20;;;;;;;;;;5019705;28;20153;-73
2021/12/14 13:37:18;;;;;;;264.95;130.23;;;;;;;;;;5016953;28;20030;-72
2021/12/14 13:39:47;;;;;;;248.30;120.53;;;;;;;;;;5017933;28;20040;-72
2021/12/14 13:42:16;;;;;;;252.38;120.63;;;;;;;;;;5016617;28;20025;-72
2021/12/14 13:44:48;;;;;;;264.45;121.53;;;;;;;;;;5016780;28;20113;-73
2021/12/14 13:47:16;;;;;;;252.63;118.30;;;;;;;;;;5017036;28;20044;-73
2021/12/14 13:49:44;;;;;;;253.15;120.18;;;;;;;;;;5017617;28;20041;-73
2021/12/14 13:52:13;;;;;;;245.18;116.82;;;;;;;;;;5017194;28;20062;-73
2021/12/14 13:54:59;;;;;;;253.38;121.65;;;;;;;;;;5017493;28;20037;-73
2021/12/14 13:57:31;;;;;;;674.85;161.18;;;;;;;;;;5017042;28;20022;-72
2021/12/14 14:00:05;;;;;;;265.02;123.97;;;;;;;;;;5017635;28;20034;-74
2021/12/14 14:02:36;;;;;;;239.32;116.28;;;;;;;;;;5018634;28;20037;-73
2021/12/14 14:05:05;;;;;;;254.18;120.13;;;;;;;;;;5017329;28;20091;-72
2021/12/14 14:07:34;;;;;;;255.30;116.35;;;;;;;;;;5016254;28;20045;-73
2021/12/14 14:10:05;;;;;;;257.20;117.45;;;;;;;;;;5001084;28;20029;-73
2021/12/14 14:12:42;;;;;;;243.90;118.22;;;;;;;;;;5014589;28;20052;-73
2021/12/14 14:15:17;;;;;;;251.38;115.97;;;;;;;;;;5016325;28;20029;-72
2021/12/14 14:17:49;;;;;;;222.02;99.55;;;;;;;;;;5013319;28;20022;-72
2021/12/14 14:20:23;;;;;;;173.40;78.57;;;;;;;;;;5014269;28;20087;-72
2021/12/14 14:22:50;;;;;;;171.07;75.78;;;;;;;;;;5013634;28;20041;-72
2021/12/14 14:25:26;;;;;;;188.70;80.85;;;;;;;;;;5009349;28;20108;-72
2021/12/14 14:28:00;;;;;;;157.18;72.43;;;;;;;;;;4997728;28;20427;-71
2021/12/14 14:30:46;;;;;;;152.45;63.72;;;;;;;;;;4998741;28;20038;-73
2021/12/14 14:33:21;;;;;;;131.68;57.90;;;;;;;;;;4997174;28;20050;-72
2021/12/14 14:35:50;;;;;;;115.95;51.20;;;;;;;;;;4997564;28;20308;-72
2021/12/14 14:38:32;;;;;;;111.63;49.40;;;;;;;;;;4998291;28;20085;-72
2021/12/14 14:41:22;;;;;;;117.22;50.35;;;;;;;;;;4997157;28;20114;-72
2021/12/14 14:44:08;;;;;;;124.70;56.53;;;;;;;;;;5016072;28;20037;-72
2021/12/14 14:46:55;;;;;;;131.65;55.78;;;;;;;;;;5016212;28;20065;-72
2021/12/14 14:49:24;;;;;;;144.07;60.33;;;;;;;;;;5015194;28;20111;-72
2021/12/14 14:52:08;;;;;;;157.23;69.45;;;;;;;;;;5014836;28;20053;-72
2021/12/14 14:54:44;;;;;;;152.05;69.28;;;;;;;;;;5014722;28;20069;-73
2021/12/14 14:57:13;;;;;;;164.95;72.47;;;;;;;;;;5014062;28;20034;-73
2021/12/14 14:59:58;;;;;;;166.25;72.18;;;;;;;;;;5014590;28;20129;-73
2021/12/14 15:02:42;;;;;;;162.45;73.10;;;;;;;;;;5014343;28;20481;-72
2021/12/14 15:05:17;;;;;;;162.35;72.75;;;;;;;;;;5014593;28;20514;-72
2021/12/14 15:08:14;;;;;;;165.50;74.82;;;;;;;;;;5014461;28;20060;-72
2021/12/14 15:10:44;;;;;;;170.00;74.95;;;;;;;;;;4936792;29;20032;-72
2021/12/14 15:13:21;;;;;;;167.52;78.75;;;;;;;;;;4936379;29;20028;-72
2021/12/14 15:16:14;;;;;;;185.73;84.55;;;;;;;;;;4936650;29;20111;-72
2021/12/14 15:18:49;;;;;;;176.82;77.57;;;;;;;;;;4879899;29;20124;-72
2021/12/14 15:21:34;;;;;;;164.13;73.07;;;;;;;;;;4880108;29;20052;-72